Time;durP1;ratioP1;P1;durP2;ratioP2;P2;SDS_P1;SDS_P2;PMS_P1;PMS_P2;Temp;Humidity;BMP_temperature;BMP_pressure;BME280_temperature;BME280_humidity;BME280_pressure;Samples;Min_cycle;Max_cycle;Signal;HPM_P1;HPM_P2
2021/10/31 00:02:46;;;;;;;3.10;1.00;;;;;;;4.05;100.00;98111.91;5004591;28;20102;-49
2021/10/31 00:05:50;;;;;;;2.17;1.00;;;;;;;4.09;100.00;98103.47;5004562;28;20420;-49
2021/10/31 00:08:54;;;;;;;0.60;0.60;;;;;;;4.10;100.00;98114.03;5005021;28;20080;-49
2021/10/31 00:11:59;;;;;;;1.75;0.95;;;;;;;4.11;100.00;98112.81;5013572;28;20427;-49
2021/10/31 00:15:03;;;;;;;1.30;1.02;;;;;;;4.18;100.00;98112.41;5004726;28;20102;-49
2021/10/31 00:18:07;;;;;;;0.57;0.45;;;;;;;4.24;100.00;98110.53;5005498;28;20559;-49
2021/10/31 00:21:11;;;;;;;1.55;1.08;;;;;;;4.29;100.00;98107.09;5004026;28;20036;-49
2021/10/31 00:24:14;;;;;;;1.23;1.13;;;;;;;4.35;100.00;98110.69;4994865;28;20096;-49
2021/10/31 00:27:18;;;;;;;1.85;0.68;;;;;;;4.40;100.00;98107.28;5006077;28;20053;-49
2021/10/31 00:30:22;;;;;;;2.00;1.10;;;;;;;4.41;100.00;98100.53;5004089;28;20137;-49
2021/10/31 00:33:27;;;;;;;6.78;1.08;;;;;;;4.44;100.00;98096.81;5004988;28;20037;-49
2021/10/31 00:36:31;;;;;;;1.42;0.80;;;;;;;4.44;100.00;98094.06;5004339;28;20113;-49
2021/10/31 00:39:36;;;;;;;4.97;1.33;;;;;;;4.48;100.00;98093.88;5004139;28;20588;-49
2021/10/31 00:42:39;;;;;;;0.40;0.40;;;;;;;4.56;100.00;98095.75;5000179;28;20137;-48
2021/10/31 00:45:44;;;;;;;2.60;2.05;;;;;;;4.54;100.00;98087.22;4991008;28;20072;-49
2021/10/31 00:48:48;;;;;;;1.10;1.00;;;;;;;4.56;100.00;98075.69;4982816;28;20045;-49
2021/10/31 00:51:52;;;;;;;1.85;0.90;;;;;;;4.58;100.00;98074.00;4983186;28;20037;-50
2021/10/31 00:54:58;;;;;;;0.30;0.30;;;;;;;4.56;100.00;98062.69;4984499;28;20104;-49
2021/10/31 00:58:01;;;;;;;0.52;0.40;;;;;;;4.54;100.00;98056.91;4983291;28;20076;-49
2021/10/31 01:01:06;;;;;;;2.38;0.88;;;;;;;4.53;100.00;98063.63;4982557;28;20443;-49
2021/10/31 01:04:10;;;;;;;5.20;1.40;;;;;;;4.57;100.00;98061.44;4984805;28;20496;-49
2021/10/31 01:07:32;;;;;;;0.73;0.20;;;;;;;4.65;100.00;98052.78;4983044;28;20106;-50
2021/10/31 01:11:05;;;;;;;;;;;;;;;4.63;100.00;98050.50;4984160;28;20557;-49
2021/10/31 01:14:46;;;;;;;1.92;0.95;;;;;;;4.75;100.00;98034.88;4990397;28;20585;-50
2021/10/31 01:18:10;;;;;;;0.77;0.77;;;;;;;4.75;100.00;98018.31;4986347;28;20180;-49
2021/10/31 01:21:17;;;;;;;;;;;;;;;4.89;100.00;98010.00;5004954;28;20068;-50
2021/10/31 01:24:42;;;;;;;1.75;0.80;;;;;;;4.99;100.00;98010.63;5004733;28;20587;-49
2021/10/31 01:27:55;;;;;;;0.77;0.60;;;;;;;4.97;100.00;98000.06;5008017;28;20048;-49
2021/10/31 01:31:42;;;;;;;1.77;0.32;;;;;;;5.11;100.00;97990.22;4998641;28;20422;-49
2021/10/31 01:35:10;;;;;;;1.15;0.73;;;;;;;5.14;100.00;97997.50;4988957;28;20088;-49
2021/10/31 01:38:39;;;;;;;0.88;0.88;;;;;;;5.15;100.00;97979.72;4987479;28;20784;-49
2021/10/31 01:42:04;;;;;;;2.28;1.38;;;;;;;5.14;100.00;97978.19;5002525;28;20636;-50
2021/10/31 01:45:18;;;;;;;5.13;0.88;;;;;;;5.15;100.00;97965.94;5001588;28;20064;-50
2021/10/31 01:48:42;;;;;;;4.45;0.82;;;;;;;5.17;100.00;97966.19;5000954;28;20057;-49
2021/10/31 01:51:54;;;;;;;0.82;0.43;;;;;;;5.33;100.00;97960.09;5002173;28;20087;-49
2021/10/31 01:55:04;;;;;;;0.38;0.38;;;;;;;5.46;100.00;97952.19;5000122;28;20687;-49
2021/10/31 01:58:09;;;;;;;1.60;1.13;;;;;;;5.45;100.00;97939.66;4997414;28;20596;-49
2021/10/31 02:01:16;;;;;;;4.55;0.80;;;;;;;5.39;100.00;97936.81;5007926;28;20106;-50
2021/10/31 02:04:24;;;;;;;1.80;0.47;;;;;;;5.38;100.00;97934.56;5005126;28;20068;-50
2021/10/31 02:07:31;;;;;;;0.65;0.65;;;;;;;5.53;100.00;97918.63;5004116;28;20045;-50
2021/10/31 02:10:36;;;;;;;0.85;0.30;;;;;;;5.57;100.00;97919.16;5002447;28;20803;-50
2021/10/31 02:13:46;;;;;;;0.80;0.80;;;;;;;5.70;100.00;97904.97;5002842;28;20254;-50
2021/10/31 02:16:55;;;;;;;3.00;0.40;;;;;;;5.68;100.00;97901.94;5025742;28;20346;-50
2021/10/31 02:20:03;;;;;;;1.20;0.68;;;;;;;5.68;100.00;97897.19;5005536;28;20455;-50
2021/10/31 02:23:07;;;;;;;1.10;0.20;;;;;;;5.65;100.00;97887.09;4996580;28;20573;-50
2021/10/31 02:26:13;;;;;;;0.88;0.32;;;;;;;5.63;100.00;97873.03;4979979;28;20137;-49
2021/10/31 02:29:17;;;;;;;0.32;0.32;;;;;;;5.62;100.00;97882.59;4978786;28;20060;-50
2021/10/31 02:32:23;;;;;;;10.73;0.65;;;;;;;5.68;100.00;97877.84;4979620;28;20478;-49
2021/10/31 02:35:26;;;;;;;1.85;1.02;;;;;;;5.75;100.00;97865.59;4978743;28;20041;-50
2021/10/31 02:38:29;;;;;;;0.28;0.28;;;;;;;5.83;100.00;97863.88;4979425;28;20149;-49
2021/10/31 02:41:34;;;;;;;0.40;0.40;;;;;;;5.88;100.00;97847.41;4980048;28;20651;-49
2021/10/31 02:44:38;;;;;;;0.68;0.40;;;;;;;5.93;100.00;97837.63;4979863;28;20053;-50
2021/10/31 02:47:44;;;;;;;0.35;0.20;;;;;;;6.00;100.00;97840.69;4981655;28;20325;-49
2021/10/31 02:50:47;;;;;;;1.45;0.95;;;;;;;5.94;100.00;97831.63;4981695;28;20044;-50
2021/10/31 02:53:58;;;;;;;0.30;0.30;;;;;;;5.87;100.00;97826.53;4993865;28;20040;-49
2021/10/31 02:57:17;;;;;;;0.20;0.20;;;;;;;5.95;100.00;97824.84;4987251;28;20072;-49
2021/10/31 03:00:22;;;;;;;0.40;0.40;;;;;;;6.02;100.00;97818.84;4979351;28;20080;-49
2021/10/31 03:03:29;;;;;;;0.10;0.10;;;;;;;6.03;100.00;97811.31;4984923;28;20487;-49
2021/10/31 03:06:32;;;;;;;0.60;0.20;;;;;;;6.04;100.00;97813.56;4997950;28;20521;-49
2021/10/31 03:09:36;;;;;;;0.68;0.68;;;;;;;6.04;100.00;97791.47;4999442;28;20040;-49
2021/10/31 03:12:39;;;;;;;0.50;0.50;;;;;;;6.07;100.00;97793.25;5001225;28;20063;-49
2021/10/31 03:15:42;;;;;;;0.63;0.25;;;;;;;6.07;100.00;97779.44;4999965;28;20284;-49
2021/10/31 03:18:45;;;;;;;0.30;0.30;;;;;;;6.10;100.00;97761.88;4998374;28;20111;-49
2021/10/31 03:21:48;;;;;;;2.78;0.75;;;;;;;6.00;100.00;97752.28;4996408;28;20407;-49
2021/10/31 03:24:51;;;;;;;2.53;0.68;;;;;;;5.96;100.00;97740.72;4999303;28;20126;-49
2021/10/31 03:27:54;;;;;;;0.13;0.13;;;;;;;5.93;100.00;97741.69;5000624;28;20071;-49
2021/10/31 03:30:57;;;;;;;0.30;0.30;;;;;;;6.20;100.00;97731.25;4998801;28;20048;-49
2021/10/31 03:34:00;;;;;;;1.17;0.35;;;;;;;6.36;100.00;97722.25;4998394;28;20064;-49
2021/10/31 03:37:04;;;;;;;8.85;0.55;;;;;;;6.58;100.00;97716.78;4999512;28;20478;-49
2021/10/31 03:40:07;;;;;;;0.10;0.10;;;;;;;6.69;100.00;97719.56;4999505;28;20275;-49
2021/10/31 03:43:10;;;;;;;0.22;0.22;;;;;;;6.71;100.00;97703.97;4986085;28;20160;-49
2021/10/31 03:46:13;;;;;;;0.30;0.30;;;;;;;6.87;100.00;97705.22;4979024;28;20513;-49
2021/10/31 03:49:16;;;;;;;4.30;0.57;;;;;;;6.98;100.00;97688.63;4980653;28;20096;-49
2021/10/31 03:52:20;;;;;;;0.10;0.10;;;;;;;7.12;100.00;97693.16;4979816;28;20125;-48
2021/10/31 03:55:23;;;;;;;0.75;0.25;;;;;;;7.31;100.00;97677.53;4999075;28;20464;-48
2021/10/31 03:58:26;;;;;;;0.20;0.20;;;;;;;7.47;100.00;97662.16;4997202;28;20371;-49
2021/10/31 04:01:32;;;;;;;0.10;0.10;;;;;;;7.53;100.00;97660.13;4998675;28;20049;-49
2021/10/31 04:04:35;;;;;;;0.30;0.30;;;;;;;7.58;100.00;97646.22;4997720;28;20563;-49
2021/10/31 04:07:38;;;;;;;0.55;0.47;;;;;;;7.70;100.00;97626.81;4977879;28;20064;-49
2021/10/31 04:10:41;;;;;;;3.50;0.93;;;;;;;7.77;100.00;97612.44;4977523;28;20064;-49
2021/10/31 04:13:44;;;;;;;0.20;0.20;;;;;;;7.74;100.00;97608.66;4976524;28;20803;-49
2021/10/31 04:16:48;;;;;;;0.10;0.10;;;;;;;7.70;100.00;97596.34;4976995;28;20508;-50
2021/10/31 04:19:52;;;;;;;0.10;0.10;;;;;;;7.74;100.00;97585.72;4991255;28;20056;-49
2021/10/31 04:22:55;;;;;;;0.57;0.47;;;;;;;7.75;100.00;97588.00;4998362;28;20664;-49
2021/10/31 04:25:59;;;;;;;0.10;0.10;;;;;;;7.78;100.00;97564.81;5000649;28;20044;-49
2021/10/31 04:29:02;;;;;;;0.10;0.10;;;;;;;7.85;100.00;97563.50;4998804;28;20092;-49
2021/10/31 04:32:06;;;;;;;0.17;0.17;;;;;;;7.87;100.00;97563.75;5000299;28;20144;-49
2021/10/31 04:35:10;;;;;;;0.17;0.17;;;;;;;7.90;100.00;97563.50;5000227;28;20044;-49
2021/10/31 04:38:25;;;;;;;0.73;0.73;;;;;;;7.89;100.00;97547.38;5000369;28;20044;-49
2021/10/31 04:41:31;;;;;;;0.20;0.20;;;;;;;7.88;100.00;97545.88;5000223;28;20149;-49
2021/10/31 04:44:34;;;;;;;0.40;0.40;;;;;;;7.91;100.00;97528.19;4997868;28;20076;-50
2021/10/31 04:47:37;;;;;;;0.60;0.60;;;;;;;7.92;100.00;97515.88;4995416;28;20248;-49
2021/10/31 04:50:41;;;;;;;1.75;0.50;;;;;;;7.99;100.00;97513.28;4979629;28;20033;-48
2021/10/31 04:53:44;;;;;;;0.10;0.10;;;;;;;8.05;100.00;97493.84;4990131;28;20146;-48
2021/10/31 04:56:47;;;;;;;0.30;0.30;;;;;;;8.06;100.00;97487.78;4997689;28;20235;-48
2021/10/31 04:59:51;;;;;;;0.22;0.22;;;;;;;8.10;100.00;97477.16;4990411;28;20060;-49
2021/10/31 05:02:54;;;;;;;0.47;0.47;;;;;;;8.16;100.00;97477.91;4991624;28;20158;-49
2021/10/31 05:05:57;;;;;;;0.52;0.20;;;;;;;8.26;100.00;97475.56;4997693;28;20123;-47
2021/10/31 05:09:01;;;;;;;1.70;1.00;;;;;;;8.32;100.00;97467.94;4996972;28;20066;-48
2021/10/31 05:12:04;;;;;;;0.85;0.85;;;;;;;8.36;100.00;97462.84;4997307;28;20376;-48
2021/10/31 05:15:08;;;;;;;0.30;0.30;;;;;;;8.44;100.00;97447.16;4997365;28;20390;-48
2021/10/31 05:18:11;;;;;;;0.40;0.40;;;;;;;8.49;100.00;97454.66;4997464;28;20138;-48
2021/10/31 05:21:14;;;;;;;0.30;0.30;;;;;;;8.60;100.00;97443.44;4980018;28;20053;-48
2021/10/31 05:24:17;;;;;;;1.45;0.75;;;;;;;8.62;100.00;97435.34;4990441;28;20324;-48
2021/10/31 05:27:20;;;;;;;0.32;0.32;;;;;;;8.63;100.00;97414.69;4997793;28;20076;-48
2021/10/31 05:30:23;;;;;;;1.00;0.68;;;;;;;8.64;100.00;97416.16;4997247;28;20446;-48
2021/10/31 05:33:26;;;;;;;0.35;0.30;;;;;;;8.71;100.00;97404.50;5000995;28;20040;-48
2021/10/31 05:36:32;;;;;;;0.35;0.20;;;;;;;8.81;100.00;97394.53;5000083;28;20248;-49
2021/10/31 05:39:35;;;;;;;1.17;0.30;;;;;;;8.89;100.00;97380.81;4998096;28;20606;-49
2021/10/31 05:42:39;;;;;;;3.60;1.63;;;;;;;8.90;100.00;97360.13;5000865;28;20045;-48
2021/10/31 05:45:43;;;;;;;7.13;0.55;;;;;;;8.91;100.00;97345.72;4999066;28;20360;-48
2021/10/31 05:48:46;;;;;;;3.75;0.40;;;;;;;8.95;100.00;97340.59;5000503;28;20044;-49
2021/10/31 05:51:49;;;;;;;0.22;0.22;;;;;;;8.97;100.00;97326.94;5001704;28;20040;-48
2021/10/31 05:54:52;;;;;;;3.05;0.77;;;;;;;9.00;100.00;97303.69;4981690;28;20074;-48
2021/10/31 05:57:55;;;;;;;0.30;0.20;;;;;;;9.00;100.00;97295.38;4979963;28;20421;-48
2021/10/31 06:00:58;;;;;;;0.85;0.85;;;;;;;9.09;100.00;97277.59;4980710;28;20057;-49
2021/10/31 06:04:01;;;;;;;0.90;0.73;;;;;;;9.15;100.00;97270.66;4981613;28;20648;-49
2021/10/31 06:07:05;;;;;;;10.25;1.13;;;;;;;9.19;100.00;97264.78;4980720;28;20084;-49
2021/10/31 06:10:13;;;;;;;0.20;0.20;;;;;;;9.23;100.00;97247.81;4979453;28;20076;-49
2021/10/31 06:13:18;;;;;;;0.28;0.22;;;;;;;9.31;100.00;97246.69;4984409;28;20665;-49
2021/10/31 06:16:22;;;;;;;0.25;0.25;;;;;;;9.35;100.00;97221.38;4996713;28;20048;-49
2021/10/31 06:19:25;;;;;;;1.88;0.75;;;;;;;9.42;100.00;97215.19;4998973;28;20187;-49
2021/10/31 06:22:28;;;;;;;0.50;0.35;;;;;;;9.46;100.00;97198.97;5000784;28;20561;-49
2021/10/31 06:25:31;;;;;;;0.60;0.43;;;;;;;9.51;100.00;97184.19;5000652;28;20080;-49
2021/10/31 06:28:34;;;;;;;10.13;1.25;;;;;;;9.54;100.00;97178.34;5000717;28;20049;-49
2021/10/31 06:31:37;;;;;;;0.30;0.30;;;;;;;9.61;100.00;97165.84;5000099;28;20055;-49
2021/10/31 06:34:40;;;;;;;1.67;0.68;;;;;;;9.62;100.00;97164.53;5001219;28;20064;-49
2021/10/31 06:37:44;;;;;;;1.10;0.30;;;;;;;9.66;100.00;97149.06;5002374;28;20119;-49
2021/10/31 06:40:47;;;;;;;0.38;0.32;;;;;;;9.73;100.00;97142.09;4996080;28;20036;-49
2021/10/31 06:43:50;;;;;;;6.45;0.77;;;;;;;9.74;100.00;97119.34;4991416;28;21290;-50
2021/10/31 06:46:53;;;;;;;0.43;0.43;;;;;;;9.80;100.00;97122.00;5001100;28;20041;-50
2021/10/31 06:49:57;;;;;;;2.28;0.45;;;;;;;9.83;100.00;97109.84;5001224;28;20045;-51
2021/10/31 06:52:59;;;;;;;0.20;0.20;;;;;;;9.84;100.00;97103.72;5002697;28;20279;-51
2021/10/31 06:56:03;;;;;;;0.43;0.22;;;;;;;9.84;100.00;97094.63;4999358;28;20613;-51
2021/10/31 06:59:06;;;;;;;0.10;0.10;;;;;;;9.85;100.00;97076.69;4999448;28;20069;-50
2021/10/31 07:02:09;;;;;;;0.13;0.13;;;;;;;9.87;100.00;97071.34;4999072;28;20487;-50
2021/10/31 07:05:12;;;;;;;0.25;0.25;;;;;;;9.89;100.00;97077.84;4999713;28;20040;-51
2021/10/31 07:08:15;;;;;;;0.55;0.38;;;;;;;9.88;100.00;97067.25;4999211;28;20040;-51
2021/10/31 07:11:18;;;;;;;0.40;0.40;;;;;;;9.88;100.00;97056.13;4999980;28;20147;-50
2021/10/31 07:14:21;;;;;;;4.30;0.52;;;;;;;9.86;100.00;97067.03;4998899;28;20115;-50
2021/10/31 07:17:25;;;;;;;0.43;0.43;;;;;;;9.87;100.00;97060.22;4999456;28;20800;-50
2021/10/31 07:20:28;;;;;;;0.25;0.25;;;;;;;9.88;100.00;97045.03;4999157;28;20477;-51
2021/10/31 07:23:31;;;;;;;0.77;0.57;;;;;;;9.87;100.00;97043.53;4998559;28;20048;-51
2021/10/31 07:26:34;;;;;;;1.10;0.73;;;;;;;9.86;100.00;97030.91;4998900;28;20288;-52
2021/10/31 07:29:37;;;;;;;0.40;0.38;;;;;;;9.87;100.00;97029.63;4996794;28;20384;-53
2021/10/31 07:32:41;;;;;;;0.65;0.40;;;;;;;9.86;100.00;97026.09;4998629;28;20322;-53
2021/10/31 07:35:45;;;;;;;0.70;0.30;;;;;;;9.90;100.00;97003.53;4998615;28;20091;-50
2021/10/31 07:38:48;;;;;;;4.30;0.47;;;;;;;9.91;100.00;96989.09;4998105;28;20122;-51
2021/10/31 07:41:51;;;;;;;0.63;0.38;;;;;;;9.93;100.00;96980.22;4997691;28;20828;-51
2021/10/31 07:44:55;;;;;;;0.10;0.10;;;;;;;9.94;100.00;96949.09;4998240;28;20417;-50
2021/10/31 07:48:00;;;;;;;0.43;0.38;;;;;;;9.99;100.00;96928.00;4999060;28;20111;-51
2021/10/31 07:51:03;;;;;;;2.60;0.35;;;;;;;10.03;100.00;96939.53;4998243;28;20032;-50
2021/10/31 07:54:06;;;;;;;0.20;0.20;;;;;;;10.04;100.00;96932.69;4989513;28;20726;-51
2021/10/31 07:57:09;;;;;;;0.98;0.45;;;;;;;10.06;100.00;96916.22;4992587;28;20041;-51
2021/10/31 08:00:13;;;;;;;3.08;0.43;;;;;;;10.10;100.00;96910.31;4997789;28;20107;-50
2021/10/31 08:03:17;;;;;;;0.45;0.40;;;;;;;10.13;100.00;96904.44;4997517;28;20741;-50
2021/10/31 08:06:22;;;;;;;4.78;1.02;;;;;;;10.13;100.00;96904.44;4995881;28;20060;-51
2021/10/31 08:09:25;;;;;;;2.10;0.65;;;;;;;10.15;100.00;96896.31;4997826;28;20505;-51
2021/10/31 08:12:29;;;;;;;0.68;0.60;;;;;;;10.17;100.00;96881.84;5000008;28;20399;-51
2021/10/31 08:15:33;;;;;;;1.05;0.47;;;;;;;10.23;100.00;96874.84;4992067;28;20052;-50
2021/10/31 08:18:36;;;;;;;0.40;0.40;;;;;;;10.25;100.00;96875.06;4994184;28;20068;-50
2021/10/31 08:21:39;;;;;;;1.23;0.50;;;;;;;10.26;100.00;96882.13;4999615;28;20048;-50
2021/10/31 08:24:43;;;;;;;1.30;0.57;;;;;;;10.31;100.00;96880.47;4999162;28;20122;-50
2021/10/31 08:27:46;;;;;;;0.10;0.10;;;;;;;10.29;100.00;96872.66;4998895;28;20200;-51
2021/10/31 08:30:56;;;;;;;0.30;0.25;;;;;;;10.29;100.00;96867.09;4998445;28;20143;-50
2021/10/31 08:34:01;;;;;;;0.10;0.10;;;;;;;10.31;100.00;96842.25;4998414;28;20067;-51
2021/10/31 08:37:04;;;;;;;0.20;0.20;;;;;;;10.30;100.00;96846.34;4999442;28;20228;-51
2021/10/31 08:40:08;;;;;;;9.05;0.65;;;;;;;10.32;100.00;96818.75;4977869;28;20271;-50
2021/10/31 08:43:11;;;;;;;0.20;0.10;;;;;;;10.35;100.00;96820.41;4979540;28;20072;-51
2021/10/31 08:46:16;;;;;;;0.20;0.20;;;;;;;10.38;100.00;96829.69;4978800;28;20033;-50
2021/10/31 08:49:20;;;;;;;0.10;0.10;;;;;;;10.40;100.00;96822.28;4979621;28;21154;-50
2021/10/31 08:52:23;;;;;;;0.28;0.13;;;;;;;10.44;100.00;96833.06;4981363;28;20428;-51
2021/10/31 08:55:26;;;;;;;0.20;0.17;;;;;;;10.44;100.00;96831.03;5003802;28;20039;-51
2021/10/31 08:58:29;;;;;;;0.30;0.15;;;;;;;10.49;100.00;96830.16;5029676;28;20045;-51
2021/10/31 09:01:32;;;;;;;2.28;0.22;;;;;;;10.54;100.00;96809.78;5032665;28;20550;-50
2021/10/31 09:04:39;;;;;;;2.70;0.60;;;;;;;10.58;100.00;96826.09;5032453;28;20513;-50
2021/10/31 09:07:42;;;;;;;4.78;1.17;;;;;;;10.58;100.00;96824.06;5031922;28;20056;-51
2021/10/31 09:10:46;;;;;;;0.85;0.35;;;;;;;10.59;100.00;96836.69;5031942;28;20116;-51
2021/10/31 09:13:50;;;;;;;0.30;0.30;;;;;;;10.60;100.00;96840.97;5026480;28;20052;-51
2021/10/31 09:16:54;;;;;;;0.63;0.63;;;;;;;10.62;100.00;96837.63;5003602;28;21220;-51
2021/10/31 09:19:57;;;;;;;0.20;0.10;;;;;;;10.62;100.00;96834.84;4997530;28;20517;-52
2021/10/31 09:23:02;;;;;;;5.47;0.77;;;;;;;10.55;100.00;96808.47;5003644;28;20099;-51
2021/10/31 09:26:05;;;;;;;0.30;0.17;;;;;;;10.49;100.00;96804.34;5004517;28;20164;-52
2021/10/31 09:29:08;;;;;;;4.13;0.20;;;;;;;10.45;100.00;96790.81;5004664;28;20125;-51
2021/10/31 09:32:11;;;;;;;0.20;0.20;;;;;;;10.41;100.00;96784.84;5006196;28;20144;-51
2021/10/31 09:35:17;;;;;;;0.55;0.30;;;;;;;10.31;100.00;96789.41;5000604;28;20353;-51
2021/10/31 09:38:22;;;;;;;2.47;0.40;;;;;;;10.21;100.00;96788.44;5002096;28;20272;-51
2021/10/31 09:41:30;;;;;;;0.85;0.40;;;;;;;10.15;100.00;96790.63;5004456;28;20045;-51
2021/10/31 09:44:43;;;;;;;0.65;0.45;;;;;;;10.10;100.00;96766.47;5004437;28;20139;-51
2021/10/31 09:48:00;;;;;;;0.80;0.50;;;;;;;10.04;100.00;96746.44;5005312;28;20496;-51
2021/10/31 09:51:03;;;;;;;3.70;0.45;;;;;;;10.00;100.00;96740.47;5006342;28;20043;-51
2021/10/31 09:54:06;;;;;;;0.17;0.17;;;;;;;9.98;100.00;96748.63;5012666;28;20058;-51
2021/10/31 09:57:11;;;;;;;4.07;0.75;;;;;;;9.93;100.00;96730.81;4998437;28;20037;-51
2021/10/31 10:00:19;;;;;;;0.63;0.40;;;;;;;9.88;100.00;96728.16;4986514;28;20037;-51
2021/10/31 10:06:49;;;;;;;0.70;0.50;;;;;;;9.82;100.00;96728.31;4999434;28;20134;-51
2021/10/31 10:09:55;;;;;;;2.80;0.73;;;;;;;9.78;100.00;96724.41;5004638;28;20556;-51
2021/10/31 10:13:15;;;;;;;0.40;0.22;;;;;;;9.73;100.00;96728.06;5004787;28;20099;-51
2021/10/31 10:16:19;;;;;;;1.95;0.30;;;;;;;9.73;100.00;96708.59;5003622;28;20057;-51
2021/10/31 10:19:29;;;;;;;0.10;0.10;;;;;;;9.74;100.00;96710.13;5008274;28;20083;-51
2021/10/31 10:22:37;;;;;;;0.10;0.10;;;;;;;9.70;100.00;96713.22;5006971;28;20521;-51
2021/10/31 10:25:42;;;;;;;0.15;0.10;;;;;;;9.72;100.00;96712.69;5007399;28;20082;-51
2021/10/31 10:28:44;;;;;;;2.95;0.55;;;;;;;9.71;100.00;96713.97;5006279;28;20119;-51
2021/10/31 10:31:49;;;;;;;1.75;0.30;;;;;;;9.68;100.00;96726.91;5008612;28;20540;-51
2021/10/31 10:52:04;;;;;;;0.30;0.30;;;;;;;9.85;100.00;96695.91;6294742;22;1305053;-48
2021/10/31 10:55:16;;;;;;;0.40;0.40;;;;;;;10.02;100.00;96698.22;6346950;22;20026;-48
2021/10/31 10:58:20;;;;;;;0.28;0.28;;;;;;;10.18;100.00;96694.97;6346730;22;20026;-48
2021/10/31 11:01:22;;;;;;;0.10;0.10;;;;;;;10.54;100.00;96687.34;6346778;22;20085;-49
2021/10/31 11:04:33;;;;;;;0.15;0.10;;;;;;;10.87;100.00;96668.84;6342038;22;20025;-48
2021/10/31 11:07:56;;;;;;;5.23;0.77;;;;;;;11.09;100.00;96656.25;6307409;22;20090;-48
2021/10/31 11:11:15;;;;;;;2.17;0.52;;;;;;;11.20;100.00;96658.66;6307490;22;20573;-48
2021/10/31 11:14:19;;;;;;;1.38;0.22;;;;;;;11.10;100.00;96647.34;6311221;22;20021;-48
2021/10/31 11:17:23;;;;;;;0.20;0.20;;;;;;;10.89;100.00;96648.81;6318615;22;20018;-47
2021/10/31 11:20:33;;;;;;;1.58;0.40;;;;;;;10.77;100.00;96647.69;6319091;22;20092;-48
2021/10/31 11:23:38;;;;;;;0.55;0.10;;;;;;;10.62;100.00;96643.59;6308068;22;20488;-48
2021/10/31 11:26:43;;;;;;;0.68;0.00;;;;;;;10.55;100.00;96649.88;6306573;22;20110;-48
2021/10/31 11:29:47;;;;;;;0.28;0.28;;;;;;;10.55;100.00;96644.31;6313489;22;20063;-48
2021/10/31 11:32:52;;;;;;;0.35;0.22;;;;;;;10.60;100.00;96640.63;6312389;22;20013;-48
2021/10/31 11:35:55;;;;;;;1.48;0.30;;;;;;;10.62;100.00;96643.59;6312993;22;20317;-48
2021/10/31 11:38:58;;;;;;;0.50;0.40;;;;;;;10.62;100.00;96648.41;6311621;22;20010;-48
2021/10/31 11:42:02;;;;;;;7.03;0.40;;;;;;;10.61;100.00;96647.66;6289930;22;20116;-48
2021/10/31 11:45:11;;;;;;;0.80;0.65;;;;;;;10.64;100.00;96646.56;6301881;22;20409;-49
2021/10/31 11:48:20;;;;;;;0.10;0.10;;;;;;;10.91;100.00;96651.78;6302886;22;20014;-52
2021/10/31 11:51:39;;;;;;;0.20;0.20;;;;;;;11.11;100.00;96654.38;6299816;22;20116;-51
2021/10/31 11:54:42;;;;;;;0.98;0.57;;;;;;;11.24;100.00;96650.69;6296359;22;20095;-51
2021/10/31 11:57:50;;;;;;;0.20;0.13;;;;;;;11.41;100.00;96648.09;6295554;22;20283;-51
2021/10/31 12:00:56;;;;;;;2.15;0.10;;;;;;;11.45;100.00;96654.03;6295813;22;20079;-52
2021/10/31 12:04:02;;;;;;;0.10;0.10;;;;;;;11.60;100.00;96637.28;6299561;22;20033;-52
2021/10/31 12:07:10;;;;;;;0.10;0.10;;;;;;;11.61;100.00;96638.75;6300742;22;20107;-51
2021/10/31 12:10:46;;;;;;;0.20;0.10;;;;;;;11.52;100.00;96635.81;6298353;22;21179;-52
2021/10/31 12:13:51;;;;;;;0.10;0.10;;;;;;;11.39;100.00;96631.19;6298394;22;20017;-52
2021/10/31 12:16:58;;;;;;;0.30;0.25;;;;;;;11.33;100.00;96627.81;6298582;22;20068;-51
2021/10/31 12:20:01;;;;;;;1.45;0.43;;;;;;;11.22;100.00;96622.63;6295768;22;20068;-51
2021/10/31 12:23:21;;;;;;;1.20;0.15;;;;;;;11.14;100.00;96617.09;6295348;22;20153;-53
2021/10/31 12:26:26;;;;;;;1.95;0.30;;;;;;;11.27;100.00;96613.34;6299495;22;20017;-53
2021/10/31 12:29:29;;;;;;;0.85;0.65;;;;;;;11.46;100.00;96610.19;6296792;22;20105;-52
2021/10/31 12:32:39;;;;;;;0.50;0.38;;;;;;;11.55;100.00;96596.41;6296282;22;20417;-51
2021/10/31 12:35:45;;;;;;;2.05;0.50;;;;;;;11.75;100.00;96598.25;6280535;22;20382;-50
2021/10/31 12:38:48;;;;;;;0.60;0.60;;;;;;;11.90;100.00;96605.81;6300548;22;20071;-51
2021/10/31 12:42:25;;;;;;;0.10;0.10;;;;;;;11.80;100.00;96604.91;6302258;22;20045;-52
2021/10/31 12:45:29;;;;;;;0.30;0.30;;;;;;;11.52;100.00;96591.94;6297848;22;20075;-52
2021/10/31 12:48:41;;;;;;;0.35;0.35;;;;;;;11.60;100.00;96586.34;6300499;22;20021;-52
2021/10/31 12:54:56;;;;;;;0.20;0.20;;;;;;;11.55;100.00;96590.81;6299951;22;20017;-51
2021/10/31 12:58:04;;;;;;;0.30;0.30;;;;;;;11.52;100.00;96572.44;6299034;22;20080;-51
2021/10/31 13:01:07;;;;;;;0.17;0.13;;;;;;;11.34;100.00;96571.56;6300233;22;20331;-51
2021/10/31 13:04:10;;;;;;;0.20;0.15;;;;;;;11.17;100.00;96573.44;6338023;22;20042;-53
2021/10/31 13:07:13;;;;;;;0.20;0.20;;;;;;;11.16;100.00;96566.38;6339301;22;20469;-51
2021/10/31 13:10:27;;;;;;;1.55;0.45;;;;;;;11.22;100.00;96573.25;6338988;22;20395;-51
2021/10/31 13:13:31;;;;;;;0.75;0.47;;;;;;;11.32;100.00;96573.44;6339295;22;20385;-51
2021/10/31 13:16:33;;;;;;;0.85;0.10;;;;;;;11.51;100.00;96562.59;6339005;22;20068;-51
2021/10/31 13:19:39;;;;;;;2.13;0.25;;;;;;;11.74;100.00;96577.22;6338948;22;20319;-51
2021/10/31 13:22:45;;;;;;;0.80;0.35;;;;;;;11.77;100.00;96576.13;6338429;22;20346;-51
2021/10/31 13:25:55;;;;;;;0.65;0.22;;;;;;;11.61;100.00;96566.28;6339060;22;20024;-51
2021/10/31 13:28:59;;;;;;;0.38;0.32;;;;;;;11.51;100.00;96562.59;6338577;22;20041;-51
2021/10/31 13:32:33;;;;;;;0.10;0.10;;;;;;;11.37;100.00;96562.06;6319856;22;20077;-52
2021/10/31 13:35:43;;;;;;;2.08;0.30;;;;;;;11.29;100.00;96564.13;6319671;22;20064;-52
2021/10/31 13:39:07;;;;;;;7.38;0.40;;;;;;;11.40;100.00;96558.19;6338987;22;20044;-52
2021/10/31 13:42:15;;;;;;;0.10;0.10;;;;;;;11.57;100.00;96565.94;6338390;22;20026;-51
2021/10/31 13:45:18;;;;;;;0.32;0.20;;;;;;;11.73;100.00;96561.06;6338554;22;20359;-52
2021/10/31 13:48:29;;;;;;;0.30;0.30;;;;;;;11.55;100.00;96549.03;6338289;22;20458;-52
2021/10/31 13:51:33;;;;;;;0.75;0.30;;;;;;;11.49;100.00;96548.50;6319364;22;20373;-52
2021/10/31 13:54:37;;;;;;;0.73;0.60;;;;;;;11.57;100.00;96538.06;6338434;22;20025;-52
2021/10/31 13:57:42;;;;;;;0.73;0.30;;;;;;;11.59;100.00;96549.38;6338607;22;20156;-52
2021/10/31 14:00:47;;;;;;;0.10;0.10;;;;;;;11.55;100.00;96551.81;6338265;22;20119;-56
2021/10/31 14:03:51;;;;;;;1.08;0.63;;;;;;;11.51;100.00;96556.28;6338375;22;20075;-53
2021/10/31 14:07:06;;;;;;;3.63;0.88;;;;;;;11.51;100.00;96551.47;6338346;22;20338;-52
2021/10/31 14:10:12;;;;;;;0.65;0.25;;;;;;;11.49;100.00;96559.63;6338139;22;20068;-52
2021/10/31 14:13:18;;;;;;;0.10;0.10;;;;;;;11.46;100.00;96549.59;6338439;22;20026;-52
2021/10/31 14:16:26;;;;;;;0.52;0.22;;;;;;;11.48;100.00;96560.94;6311523;22;20029;-52
2021/10/31 14:19:30;;;;;;;2.25;0.30;;;;;;;11.47;100.00;96562.25;6306468;22;20079;-52
2021/10/31 14:22:48;;;;;;;3.05;0.38;;;;;;;11.50;100.00;96547.19;6307288;22;20145;-53
2021/10/31 14:25:51;;;;;;;0.32;0.22;;;;;;;11.51;100.00;96531.94;6306783;22;20013;-52
2021/10/31 14:28:54;;;;;;;0.40;0.40;;;;;;;11.47;100.00;96551.09;6306172;22;20100;-52
2021/10/31 14:31:59;;;;;;;0.32;0.32;;;;;;;11.40;100.00;96557.44;6312134;22;20648;-52
2021/10/31 14:35:03;;;;;;;0.68;0.40;;;;;;;11.39;100.00;96537.19;6310876;22;20014;-52
2021/10/31 14:38:10;;;;;;;3.03;0.20;;;;;;;11.40;100.00;96544.25;6338479;22;20026;-52
2021/10/31 14:41:14;;;;;;;0.73;0.45;;;;;;;11.37;100.00;96533.47;6337919;22;20053;-53
2021/10/31 14:44:17;;;;;;;0.60;0.35;;;;;;;11.45;100.00;96528.63;6338553;22;20025;-53
2021/10/31 14:47:20;;;;;;;0.20;0.20;;;;;;;11.50;100.00;96521.38;6338169;22;20037;-53
2021/10/31 14:50:23;;;;;;;1.95;0.65;;;;;;;11.41;100.00;96533.84;6332026;22;20034;-53
2021/10/31 14:53:27;;;;;;;5.15;0.75;;;;;;;11.38;100.00;96526.59;6309032;22;20018;-53
2021/10/31 14:56:35;;;;;;;2.47;0.20;;;;;;;11.44;100.00;96519.53;6311945;22;20683;-54